createdAt,value
2023-04-29T00:01:06.099Z,0
2023-04-29T00:11:03.503Z,0
2023-04-29T00:21:02.741Z,0
2023-04-29T00:31:02.689Z,0
2023-04-29T00:41:03.750Z,0
2023-04-29T00:51:02.866Z,0
2023-04-29T01:01:03.020Z,0
2023-04-29T01:11:02.883Z,0
2023-04-29T01:21:03.009Z,0
2023-04-29T01:31:03.231Z,0
2023-04-29T01:41:02.963Z,0
2023-04-29T01:51:03.224Z,0
2023-04-29T02:01:03.396Z,0
2023-04-29T02:11:03.896Z,0
2023-04-29T02:21:03.184Z,0
2023-04-29T02:31:03.342Z,0
2023-04-29T02:41:03.560Z,0
2023-04-29T02:51:03.574Z,0
2023-04-29T03:01:03.325Z,0
2023-04-29T03:11:03.314Z,0
2023-04-29T03:21:03.374Z,0
2023-04-29T03:31:03.221Z,0
2023-04-29T03:41:03.415Z,0
2023-04-29T03:51:03.322Z,0
2023-04-29T04:01:03.397Z,0
2023-04-29T04:11:05.870Z,0
2023-04-29T04:21:03.697Z,0
2023-04-29T04:31:03.928Z,0
2023-04-29T04:41:03.740Z,0
2023-04-29T04:51:04.040Z,0
2023-04-29T05:01:03.859Z,0
2023-04-29T05:11:03.774Z,0
2023-04-29T05:21:03.718Z,0
2023-04-29T05:31:03.784Z,0
2023-04-29T05:41:03.730Z,0
2023-04-29T05:51:03.775Z,0
2023-04-29T06:01:03.803Z,0
2023-04-29T06:11:03.829Z,0
2023-04-29T06:21:03.746Z,0
2023-04-29T06:31:03.749Z,0
2023-04-29T06:41:04.258Z,0
2023-04-29T06:51:04.128Z,0
2023-04-29T07:01:04.097Z,0
2023-04-29T07:11:04.186Z,0
2023-04-29T07:21:04.646Z,0
2023-04-29T07:31:04.440Z,0
2023-04-29T07:41:04.817Z,0
2023-04-29T07:51:06.550Z,0
2023-04-29T08:01:05.358Z,0
2023-04-29T08:11:06.155Z,0
2023-04-29T08:21:05.129Z,0
2023-04-29T08:31:05.187Z,0
2023-04-29T08:41:05.113Z,0
2023-04-29T08:51:05.050Z,0
2023-04-29T09:01:05.616Z,0
2023-04-29T09:11:05.227Z,0
2023-04-29T09:21:05.265Z,0
2023-04-29T09:31:05.575Z,0
2023-04-29T09:41:05.351Z,0
2023-04-29T09:51:05.191Z,0
2023-04-29T10:01:06.325Z,0
2023-04-29T10:11:06.298Z,0
2023-04-29T10:21:05.428Z,0
2023-04-29T10:31:05.572Z,0.0001
2023-04-29T10:41:05.358Z,0.0012
2023-04-29T10:51:05.482Z,0.0030
2023-04-29T11:01:05.503Z,0.0048
2023-04-29T11:11:05.334Z,0.0066
2023-04-29T11:21:06.436Z,0.0084
2023-04-29T11:31:05.595Z,0.0102
2023-04-29T11:41:05.799Z,0.0120
2023-04-29T11:51:06.611Z,0.0138
2023-04-29T12:01:05.513Z,0.0156
2023-04-29T12:11:06.084Z,0.0175
2023-04-29T12:21:06.167Z,0.0193
2023-04-29T12:31:06.222Z,0.0211
2023-04-29T12:41:06.171Z,0.0229
2023-04-29T12:51:05.997Z,0.0247
2023-04-29T13:01:06.236Z,0.0265
2023-04-29T13:11:07.652Z,0.0283
2023-04-29T13:21:07.162Z,0.0301
2023-04-29T13:31:06.294Z,0.0319
2023-04-29T13:41:11.030Z,0.0337
2023-04-29T13:51:46.027Z,0.0355
2023-04-29T14:01:37.820Z,0.0373
2023-04-29T14:11:07.041Z,0.0391
2023-04-29T14:21:06.338Z,0.0409
2023-04-29T14:31:06.185Z,0.0427
2023-04-29T14:41:06.144Z,0.0445
2023-04-29T14:51:06.310Z,0.0463
2023-04-29T15:01:06.804Z,0.0482
2023-04-29T15:11:06.417Z,0.0500
2023-04-29T15:21:06.652Z,0.0518
2023-04-29T15:31:06.457Z,0.0537
2023-04-29T15:41:07.000Z,0.0556
2023-04-29T15:51:06.298Z,0.0576
2023-04-29T16:01:06.445Z,0.0595
2023-04-29T16:11:06.340Z,0.0614
2023-04-29T16:21:06.302Z,0.0634
2023-04-29T16:31:06.391Z,0.0653
2023-04-29T16:41:06.385Z,0.0673
2023-04-29T16:51:07.023Z,0.0692
2023-04-29T17:01:06.610Z,0.0712
2023-04-29T17:11:06.842Z,0.0731
2023-04-29T17:21:06.437Z,0.0751
2023-04-29T17:31:06.775Z,0.0770
2023-04-29T17:41:06.389Z,0.0789
2023-04-29T17:51:06.523Z,0.0809
2023-04-29T18:01:06.819Z,0.0828
2023-04-29T18:11:06.494Z,0.0848
2023-04-29T18:21:06.506Z,0.0867
2023-04-29T18:31:06.883Z,0.0887
2023-04-29T18:41:06.847Z,0.0906
2023-04-29T18:51:06.616Z,0.0926
2023-04-29T19:01:06.725Z,0.0945
2023-04-29T19:11:06.585Z,0.0964
2023-04-29T19:21:07.749Z,0.0984
2023-04-29T19:31:06.606Z,0.1003
2023-04-29T19:41:06.694Z,0.1023
2023-04-29T19:51:06.589Z,0.1042
2023-04-29T20:01:06.873Z,0.1062
2023-04-29T20:11:06.473Z,0.1081
2023-04-29T20:21:06.576Z,0.1101
2023-04-29T20:31:07.212Z,0.1120
2023-04-29T20:41:06.693Z,0.1139
2023-04-29T20:51:06.512Z,0.1159
2023-04-29T21:01:06.612Z,0.1178
2023-04-29T21:11:06.921Z,0.1198
2023-04-29T21:21:06.489Z,0.1217
2023-04-29T21:31:06.636Z,0.1237
2023-04-29T21:41:06.674Z,0.1256
2023-04-29T21:51:07.353Z,0.1276
2023-04-29T22:01:06.670Z,0.0001
2023-04-29T22:11:07.030Z,0.0001
2023-04-29T22:21:06.718Z,0.0001
2023-04-29T22:31:06.595Z,0.0001
2023-04-29T22:41:06.615Z,0.0001
2023-04-29T22:51:07.697Z,0.0001
2023-04-29T23:01:09.469Z,0.0001
2023-04-29T23:11:08.725Z,0.0001
2023-04-29T23:21:09.668Z,0.0001
2023-04-29T23:31:10.512Z,0.0001
2023-04-29T23:41:09.646Z,0.0001
2023-04-29T23:51:09.925Z,0.0001
